CheckWX is a tool to help pilots better visualize weather data.  It is not intended as a substitute for an official pre-flight weather briefing.

17:29:14 UTC

KJCT METAR
Kimble County Airport
Junction, Texas, USA
Current

38 mins ago

KJCT 191651Z AUTO 00000KT 10SM SCT085 34/20 A2993 RMK AO2 SLP091 T03390200
Observed
Sep-19 @ 16:51 UTC
Visibility
10 SM
Flight Rules
VFR
Cloud Levels
  • Scattered at 8,500' AGL
Temperature
34°C / 93°F
Dewpoint
20°C / 68°F
Heat Index
36°C / 97°F
Humidity
44%
Altimeter
29.93" Hg
Pressure
1013.52 hPa
Previous

2 hours ago

KJCT 191551Z AUTO VRB05KT 10SM FEW085 32/21 A2994 RMK AO2 SLP096 T03170211
Observed
Sep-19 @ 15:51 UTC
Wind
  • Variable at 5 KTS
Visibility
10 SM
Flight Rules
VFR
Cloud Levels
  • Few at 8,500' AGL
Temperature
32°C / 90°F
Dewpoint
21°C / 70°F
Heat Index
36°C / 96°F
Humidity
52%
Altimeter
29.94" Hg
Pressure
1013.92 hPa
Previous

3 hours ago

KJCT 191451Z AUTO 16003KT 10SM FEW085 27/21 A2995 RMK AO2 SLP101 T02720211 51009
Observed
Sep-19 @ 14:51 UTC
Wind
  • 160° at 3 KTS
Visibility
10 SM
Flight Rules
VFR
Cloud Levels
  • Few at 8,500' AGL
Temperature
27°C / 81°F
Dewpoint
21°C / 70°F
Heat Index
29°C / 85°F
Humidity
70%
Altimeter
29.95" Hg
Pressure
1014.22 hPa